Nanxiang, China
Current Conditions -  °F | °C
As of 8:00 AM on Sunday 26 Oct 2014 (Local Time) from ZSSS Reporting Station
Clear Clear  
Wind Chill: 70°   Ceiling: Unl
Heat Index: 70°   Visibility: 4mi
Dew Point: 64°   Wind: 4mph
Humidity: 83%   Direction: 150°SSE
Pressure: 30.06"   Gusts: NA
Location:  31.3°N, 121.28°E
Report Text: ZSSS 260000Z 15002MPS 6000 NSC 21/18 Q1018 NOSIG
Loading
Personal Weather Stations






























Interactive Weather Map
Tropical Storm Tracking
New forecast layout! Learn more

10-Day Weather Forecast

Advertisements
Track Severe Weather on mobile